sensor_id;sensor_type;location;lat;lon;timestamp;P1;durP1;ratioP1;P2;durP2;ratioP2
76123;SDS011;65173;48.066;20.976;2023-05-07T00:02:38;7.13;;;4.60;;
76123;SDS011;65173;48.066;20.976;2023-05-07T00:05:41;6.90;;;5.50;;
76123;SDS011;65173;48.066;20.976;2023-05-07T00:08:45;6.05;;;4.18;;
76123;SDS011;65173;48.066;20.976;2023-05-07T00:11:47;8.03;;;4.77;;
76123;SDS011;65173;48.066;20.976;2023-05-07T00:14:50;6.97;;;4.50;;
76123;SDS011;65173;48.066;20.976;2023-05-07T00:17:53;8.00;;;5.50;;
76123;SDS011;65173;48.066;20.976;2023-05-07T00:20:56;8.57;;;4.45;;
76123;SDS011;65173;48.066;20.976;2023-05-07T00:23:59;6.35;;;4.57;;
76123;SDS011;65173;48.066;20.976;2023-05-07T00:27:02;7.32;;;4.30;;
76123;SDS011;65173;48.066;20.976;2023-05-07T00:30:05;6.03;;;3.92;;
76123;SDS011;65173;48.066;20.976;2023-05-07T00:33:08;6.47;;;4.03;;
76123;SDS011;65173;48.066;20.976;2023-05-07T00:36:11;6.22;;;4.15;;
76123;SDS011;65173;48.066;20.976;2023-05-07T00:39:14;6.63;;;5.13;;
76123;SDS011;65173;48.066;20.976;2023-05-07T00:42:17;11.80;;;6.10;;
76123;SDS011;65173;48.066;20.976;2023-05-07T00:45:20;7.68;;;5.43;;
76123;SDS011;65173;48.066;20.976;2023-05-07T00:48:23;10.23;;;5.28;;
76123;SDS011;65173;48.066;20.976;2023-05-07T00:51:26;6.68;;;5.15;;
76123;SDS011;65173;48.066;20.976;2023-05-07T00:54:30;6.43;;;5.03;;
76123;SDS011;65173;48.066;20.976;2023-05-07T00:57:36;5.65;;;3.72;;
76123;SDS011;65173;48.066;20.976;2023-05-07T01:00:40;6.22;;;3.90;;
76123;SDS011;65173;48.066;20.976;2023-05-07T01:03:43;5.27;;;4.20;;
76123;SDS011;65173;48.066;20.976;2023-05-07T01:06:46;4.82;;;3.78;;
76123;SDS011;65173;48.066;20.976;2023-05-07T01:09:49;5.13;;;3.63;;
76123;SDS011;65173;48.066;20.976;2023-05-07T01:12:52;6.20;;;3.87;;
76123;SDS011;65173;48.066;20.976;2023-05-07T01:15:56;4.68;;;3.60;;
76123;SDS011;65173;48.066;20.976;2023-05-07T01:19:00;5.93;;;4.30;;
76123;SDS011;65173;48.066;20.976;2023-05-07T01:22:05;5.55;;;4.10;;
76123;SDS011;65173;48.066;20.976;2023-05-07T01:25:20;4.05;;;3.10;;
76123;SDS011;65173;48.066;20.976;2023-05-07T01:28:27;4.75;;;3.78;;
76123;SDS011;65173;48.066;20.976;2023-05-07T01:31:33;5.63;;;4.07;;
76123;SDS011;65173;48.066;20.976;2023-05-07T01:34:37;7.17;;;4.50;;
76123;SDS011;65173;48.066;20.976;2023-05-07T01:37:42;6.68;;;4.28;;
76123;SDS011;65173;48.066;20.976;2023-05-07T01:40:45;7.88;;;4.18;;
76123;SDS011;65173;48.066;20.976;2023-05-07T01:43:49;6.30;;;4.13;;
76123;SDS011;65173;48.066;20.976;2023-05-07T01:46:54;6.05;;;4.32;;
76123;SDS011;65173;48.066;20.976;2023-05-07T01:49:57;7.05;;;4.93;;
76123;SDS011;65173;48.066;20.976;2023-05-07T01:53:00;6.30;;;4.30;;
76123;SDS011;65173;48.066;20.976;2023-05-07T01:56:04;5.05;;;4.50;;
76123;SDS011;65173;48.066;20.976;2023-05-07T01:59:09;9.55;;;5.93;;
76123;SDS011;65173;48.066;20.976;2023-05-07T02:02:12;7.43;;;5.72;;
76123;SDS011;65173;48.066;20.976;2023-05-07T02:05:17;7.07;;;3.93;;
76123;SDS011;65173;48.066;20.976;2023-05-07T02:08:24;8.38;;;5.43;;
76123;SDS011;65173;48.066;20.976;2023-05-07T02:11:27;9.15;;;5.40;;
76123;SDS011;65173;48.066;20.976;2023-05-07T02:14:30;6.63;;;4.57;;
76123;SDS011;65173;48.066;20.976;2023-05-07T02:17:33;7.97;;;5.40;;
76123;SDS011;65173;48.066;20.976;2023-05-07T02:20:36;9.80;;;5.63;;
76123;SDS011;65173;48.066;20.976;2023-05-07T02:23:39;7.85;;;5.18;;
76123;SDS011;65173;48.066;20.976;2023-05-07T02:26:42;7.88;;;4.28;;
76123;SDS011;65173;48.066;20.976;2023-05-07T02:29:45;7.90;;;5.65;;
76123;SDS011;65173;48.066;20.976;2023-05-07T02:32:48;9.63;;;5.30;;
76123;SDS011;65173;48.066;20.976;2023-05-07T02:35:50;6.10;;;4.57;;
76123;SDS011;65173;48.066;20.976;2023-05-07T02:38:54;6.13;;;4.53;;
76123;SDS011;65173;48.066;20.976;2023-05-07T02:41:57;7.55;;;5.13;;
76123;SDS011;65173;48.066;20.976;2023-05-07T02:45:00;9.07;;;5.70;;
76123;SDS011;65173;48.066;20.976;2023-05-07T02:48:05;7.47;;;5.65;;
76123;SDS011;65173;48.066;20.976;2023-05-07T02:51:09;9.60;;;6.03;;
76123;SDS011;65173;48.066;20.976;2023-05-07T02:54:14;6.53;;;5.72;;
76123;SDS011;65173;48.066;20.976;2023-05-07T02:57:17;10.07;;;5.68;;
76123;SDS011;65173;48.066;20.976;2023-05-07T03:00:20;6.95;;;5.05;;
76123;SDS011;65173;48.066;20.976;2023-05-07T03:03:30;5.85;;;4.07;;
76123;SDS011;65173;48.066;20.976;2023-05-07T03:06:32;5.33;;;3.83;;
76123;SDS011;65173;48.066;20.976;2023-05-07T03:09:35;9.63;;;5.95;;
76123;SDS011;65173;48.066;20.976;2023-05-07T03:12:39;4.45;;;3.47;;
76123;SDS011;65173;48.066;20.976;2023-05-07T03:15:42;4.57;;;2.70;;
76123;SDS011;65173;48.066;20.976;2023-05-07T03:18:45;3.80;;;2.78;;
76123;SDS011;65173;48.066;20.976;2023-05-07T03:21:48;4.10;;;2.70;;
76123;SDS011;65173;48.066;20.976;2023-05-07T03:24:51;2.10;;;1.90;;
76123;SDS011;65173;48.066;20.976;2023-05-07T03:27:54;3.30;;;2.33;;
76123;SDS011;65173;48.066;20.976;2023-05-07T03:31:00;4.15;;;2.55;;
76123;SDS011;65173;48.066;20.976;2023-05-07T03:34:05;4.15;;;3.30;;
76123;SDS011;65173;48.066;20.976;2023-05-07T03:37:07;5.63;;;3.83;;
76123;SDS011;65173;48.066;20.976;2023-05-07T03:40:10;4.43;;;3.58;;
76123;SDS011;65173;48.066;20.976;2023-05-07T03:43:22;6.18;;;4.07;;
76123;SDS011;65173;48.066;20.976;2023-05-07T03:46:33;5.40;;;4.20;;
76123;SDS011;65173;48.066;20.976;2023-05-07T03:49:36;4.95;;;3.55;;
76123;SDS011;65173;48.066;20.976;2023-05-07T03:52:40;6.05;;;3.90;;
76123;SDS011;65173;48.066;20.976;2023-05-07T03:55:44;9.07;;;5.65;;
76123;SDS011;65173;48.066;20.976;2023-05-07T03:58:47;6.95;;;4.43;;
76123;SDS011;65173;48.066;20.976;2023-05-07T04:01:50;9.80;;;5.05;;
76123;SDS011;65173;48.066;20.976;2023-05-07T04:04:56;6.10;;;4.28;;
76123;SDS011;65173;48.066;20.976;2023-05-07T04:07:59;4.47;;;3.50;;
76123;SDS011;65173;48.066;20.976;2023-05-07T04:11:10;6.07;;;4.35;;
76123;SDS011;65173;48.066;20.976;2023-05-07T04:14:13;4.47;;;3.78;;
76123;SDS011;65173;48.066;20.976;2023-05-07T04:17:16;4.23;;;3.00;;
76123;SDS011;65173;48.066;20.976;2023-05-07T04:20:19;3.55;;;2.40;;
76123;SDS011;65173;48.066;20.976;2023-05-07T04:23:27;3.72;;;3.17;;
76123;SDS011;65173;48.066;20.976;2023-05-07T04:26:32;9.50;;;5.57;;
76123;SDS011;65173;48.066;20.976;2023-05-07T04:29:35;5.53;;;4.32;;
76123;SDS011;65173;48.066;20.976;2023-05-07T04:32:38;7.35;;;5.32;;
76123;SDS011;65173;48.066;20.976;2023-05-07T04:35:41;10.13;;;5.10;;
76123;SDS011;65173;48.066;20.976;2023-05-07T04:38:44;7.67;;;4.93;;
76123;SDS011;65173;48.066;20.976;2023-05-07T04:41:53;8.02;;;5.38;;
76123;SDS011;65173;48.066;20.976;2023-05-07T04:44:56;6.35;;;4.78;;
76123;SDS011;65173;48.066;20.976;2023-05-07T04:47:59;8.63;;;5.80;;
76123;SDS011;65173;48.066;20.976;2023-05-07T04:51:02;12.15;;;6.82;;
76123;SDS011;65173;48.066;20.976;2023-05-07T04:54:05;8.32;;;6.13;;
76123;SDS011;65173;48.066;20.976;2023-05-07T04:57:08;7.50;;;5.28;;
76123;SDS011;65173;48.066;20.976;2023-05-07T05:00:12;12.98;;;6.82;;
76123;SDS011;65173;48.066;20.976;2023-05-07T05:03:20;10.32;;;7.00;;
76123;SDS011;65173;48.066;20.976;2023-05-07T05:06:23;8.60;;;4.85;;
76123;SDS011;65173;48.066;20.976;2023-05-07T05:09:26;8.30;;;6.37;;
76123;SDS011;65173;48.066;20.976;2023-05-07T05:12:30;7.38;;;5.28;;
76123;SDS011;65173;48.066;20.976;2023-05-07T05:15:35;8.38;;;6.00;;
76123;SDS011;65173;48.066;20.976;2023-05-07T05:18:38;11.37;;;6.37;;
76123;SDS011;65173;48.066;20.976;2023-05-07T05:21:42;7.15;;;5.22;;
76123;SDS011;65173;48.066;20.976;2023-05-07T05:24:47;6.68;;;5.13;;
76123;SDS011;65173;48.066;20.976;2023-05-07T05:27:50;8.90;;;6.18;;
76123;SDS011;65173;48.066;20.976;2023-05-07T05:30:53;7.93;;;5.72;;
76123;SDS011;65173;48.066;20.976;2023-05-07T05:33:57;8.32;;;5.68;;
76123;SDS011;65173;48.066;20.976;2023-05-07T05:37:00;7.93;;;5.85;;
76123;SDS011;65173;48.066;20.976;2023-05-07T05:40:03;7.33;;;5.37;;
76123;SDS011;65173;48.066;20.976;2023-05-07T05:43:07;8.07;;;5.45;;
76123;SDS011;65173;48.066;20.976;2023-05-07T05:46:12;10.52;;;5.53;;
76123;SDS011;65173;48.066;20.976;2023-05-07T05:49:15;8.90;;;5.73;;
76123;SDS011;65173;48.066;20.976;2023-05-07T05:52:18;7.78;;;4.68;;
76123;SDS011;65173;48.066;20.976;2023-05-07T05:55:21;4.30;;;3.78;;
76123;SDS011;65173;48.066;20.976;2023-05-07T05:58:25;8.63;;;5.85;;
76123;SDS011;65173;48.066;20.976;2023-05-07T06:01:33;7.18;;;5.75;;
76123;SDS011;65173;48.066;20.976;2023-05-07T06:04:38;10.43;;;4.97;;
76123;SDS011;65173;48.066;20.976;2023-05-07T06:07:42;6.97;;;4.63;;
76123;SDS011;65173;48.066;20.976;2023-05-07T06:10:44;6.00;;;3.73;;
76123;SDS011;65173;48.066;20.976;2023-05-07T06:13:48;7.60;;;4.80;;
76123;SDS011;65173;48.066;20.976;2023-05-07T06:16:51;5.35;;;3.80;;
76123;SDS011;65173;48.066;20.976;2023-05-07T06:19:54;5.00;;;4.40;;
76123;SDS011;65173;48.066;20.976;2023-05-07T06:22:57;6.03;;;4.03;;
76123;SDS011;65173;48.066;20.976;2023-05-07T06:26:00;5.55;;;4.78;;
76123;SDS011;65173;48.066;20.976;2023-05-07T06:29:09;4.55;;;3.10;;
76123;SDS011;65173;48.066;20.976;2023-05-07T06:32:14;5.05;;;3.33;;
76123;SDS011;65173;48.066;20.976;2023-05-07T06:35:19;5.40;;;4.47;;
76123;SDS011;65173;48.066;20.976;2023-05-07T06:38:22;7.28;;;4.80;;
76123;SDS011;65173;48.066;20.976;2023-05-07T06:41:24;3.67;;;3.27;;
76123;SDS011;65173;48.066;20.976;2023-05-07T06:44:30;5.47;;;4.10;;
76123;SDS011;65173;48.066;20.976;2023-05-07T06:47:39;9.20;;;4.68;;
76123;SDS011;65173;48.066;20.976;2023-05-07T06:50:42;4.57;;;3.97;;
76123;SDS011;65173;48.066;20.976;2023-05-07T06:53:46;5.32;;;3.55;;
76123;SDS011;65173;48.066;20.976;2023-05-07T06:56:49;3.10;;;2.22;;
76123;SDS011;65173;48.066;20.976;2023-05-07T06:59:52;4.30;;;2.65;;
76123;SDS011;65173;48.066;20.976;2023-05-07T07:02:56;4.30;;;3.33;;
76123;SDS011;65173;48.066;20.976;2023-05-07T07:06:02;4.25;;;3.55;;
76123;SDS011;65173;48.066;20.976;2023-05-07T07:09:05;4.20;;;3.13;;
76123;SDS011;65173;48.066;20.976;2023-05-07T07:12:08;4.70;;;3.17;;
76123;SDS011;65173;48.066;20.976;2023-05-07T07:15:13;4.97;;;3.58;;
76123;SDS011;65173;48.066;20.976;2023-05-07T07:18:16;5.30;;;3.95;;
76123;SDS011;65173;48.066;20.976;2023-05-07T07:21:21;4.73;;;3.70;;
76123;SDS011;65173;48.066;20.976;2023-05-07T07:24:25;6.03;;;3.67;;
76123;SDS011;65173;48.066;20.976;2023-05-07T07:27:32;4.63;;;2.88;;
76123;SDS011;65173;48.066;20.976;2023-05-07T07:30:35;3.70;;;3.22;;
76123;SDS011;65173;48.066;20.976;2023-05-07T07:33:38;2.58;;;2.20;;
76123;SDS011;65173;48.066;20.976;2023-05-07T07:36:42;6.38;;;3.25;;
76123;SDS011;65173;48.066;20.976;2023-05-07T07:39:51;5.15;;;4.57;;
76123;SDS011;65173;48.066;20.976;2023-05-07T07:42:56;4.53;;;3.43;;
76123;SDS011;65173;48.066;20.976;2023-05-07T07:45:59;3.28;;;2.90;;
76123;SDS011;65173;48.066;20.976;2023-05-07T07:49:03;2.28;;;2.08;;
76123;SDS011;65173;48.066;20.976;2023-05-07T07:52:06;4.43;;;4.03;;
76123;SDS011;65173;48.066;20.976;2023-05-07T07:55:11;4.05;;;3.38;;
76123;SDS011;65173;48.066;20.976;2023-05-07T07:58:15;5.40;;;3.80;;
76123;SDS011;65173;48.066;20.976;2023-05-07T08:01:18;4.07;;;3.58;;
76123;SDS011;65173;48.066;20.976;2023-05-07T08:04:22;5.65;;;3.78;;
76123;SDS011;65173;48.066;20.976;2023-05-07T08:07:25;4.47;;;3.80;;
76123;SDS011;65173;48.066;20.976;2023-05-07T08:10:28;4.32;;;3.70;;
76123;SDS011;65173;48.066;20.976;2023-05-07T08:13:38;5.13;;;3.73;;
76123;SDS011;65173;48.066;20.976;2023-05-07T08:16:41;3.50;;;3.20;;
76123;SDS011;65173;48.066;20.976;2023-05-07T08:19:44;5.82;;;4.15;;
76123;SDS011;65173;48.066;20.976;2023-05-07T08:22:49;4.43;;;3.20;;
76123;SDS011;65173;48.066;20.976;2023-05-07T08:25:52;5.72;;;3.88;;
76123;SDS011;65173;48.066;20.976;2023-05-07T08:28:56;4.20;;;3.80;;
76123;SDS011;65173;48.066;20.976;2023-05-07T08:31:59;4.30;;;3.20;;
76123;SDS011;65173;48.066;20.976;2023-05-07T08:35:02;5.30;;;3.97;;
76123;SDS011;65173;48.066;20.976;2023-05-07T08:38:05;6.40;;;3.92;;
76123;SDS011;65173;48.066;20.976;2023-05-07T08:41:09;5.47;;;3.28;;
76123;SDS011;65173;48.066;20.976;2023-05-07T08:44:14;4.37;;;3.50;;
76123;SDS011;65173;48.066;20.976;2023-05-07T08:47:22;3.25;;;2.95;;
76123;SDS011;65173;48.066;20.976;2023-05-07T08:50:28;4.30;;;3.35;;
76123;SDS011;65173;48.066;20.976;2023-05-07T08:53:33;4.77;;;3.80;;
76123;SDS011;65173;48.066;20.976;2023-05-07T08:56:36;5.63;;;3.80;;
76123;SDS011;65173;48.066;20.976;2023-05-07T08:59:39;4.80;;;3.60;;
76123;SDS011;65173;48.066;20.976;2023-05-07T09:02:43;4.88;;;3.85;;
76123;SDS011;65173;48.066;20.976;2023-05-07T09:05:46;3.60;;;3.30;;
76123;SDS011;65173;48.066;20.976;2023-05-07T09:08:52;4.35;;;3.53;;
76123;SDS011;65173;48.066;20.976;2023-05-07T09:11:59;4.18;;;3.63;;
76123;SDS011;65173;48.066;20.976;2023-05-07T09:15:05;5.77;;;4.77;;
76123;SDS011;65173;48.066;20.976;2023-05-07T09:18:09;4.20;;;3.50;;
76123;SDS011;65173;48.066;20.976;2023-05-07T09:21:17;3.95;;;3.55;;
76123;SDS011;65173;48.066;20.976;2023-05-07T09:24:23;5.23;;;3.93;;
76123;SDS011;65173;48.066;20.976;2023-05-07T09:27:25;5.22;;;3.55;;
76123;SDS011;65173;48.066;20.976;2023-05-07T09:30:31;4.68;;;3.83;;
76123;SDS011;65173;48.066;20.976;2023-05-07T09:33:36;5.57;;;4.63;;
76123;SDS011;65173;48.066;20.976;2023-05-07T09:36:40;4.90;;;3.58;;
76123;SDS011;65173;48.066;20.976;2023-05-07T09:39:47;4.43;;;3.83;;
76123;SDS011;65173;48.066;20.976;2023-05-07T09:42:55;5.82;;;3.78;;
76123;SDS011;65173;48.066;20.976;2023-05-07T09:46:01;5.07;;;3.63;;
76123;SDS011;65173;48.066;20.976;2023-05-07T09:49:06;4.47;;;4.07;;
76123;SDS011;65173;48.066;20.976;2023-05-07T09:52:13;3.83;;;3.42;;
76123;SDS011;65173;48.066;20.976;2023-05-07T09:55:23;5.50;;;4.17;;
76123;SDS011;65173;48.066;20.976;2023-05-07T09:58:26;4.40;;;3.97;;
76123;SDS011;65173;48.066;20.976;2023-05-07T10:01:31;5.25;;;4.38;;
76123;SDS011;65173;48.066;20.976;2023-05-07T10:04:35;4.97;;;3.30;;
76123;SDS011;65173;48.066;20.976;2023-05-07T10:07:39;4.38;;;3.55;;
76123;SDS011;65173;48.066;20.976;2023-05-07T10:10:44;4.28;;;3.50;;
76123;SDS011;65173;48.066;20.976;2023-05-07T10:13:52;4.65;;;3.70;;
76123;SDS011;65173;48.066;20.976;2023-05-07T10:16:55;3.63;;;2.70;;
76123;SDS011;65173;48.066;20.976;2023-05-07T10:20:00;4.30;;;4.00;;
76123;SDS011;65173;48.066;20.976;2023-05-07T10:23:06;5.43;;;3.63;;
76123;SDS011;65173;48.066;20.976;2023-05-07T10:26:18;4.30;;;3.80;;
76123;SDS011;65173;48.066;20.976;2023-05-07T10:29:29;4.85;;;4.28;;
76123;SDS011;65173;48.066;20.976;2023-05-07T10:32:39;4.22;;;3.78;;
76123;SDS011;65173;48.066;20.976;2023-05-07T10:35:49;3.72;;;3.35;;
76123;SDS011;65173;48.066;20.976;2023-05-07T10:38:53;5.20;;;3.78;;
76123;SDS011;65173;48.066;20.976;2023-05-07T10:41:57;4.60;;;3.40;;
76123;SDS011;65173;48.066;20.976;2023-05-07T10:45:13;3.45;;;3.00;;
76123;SDS011;65173;48.066;20.976;2023-05-07T10:48:21;3.13;;;2.90;;
76123;SDS011;65173;48.066;20.976;2023-05-07T10:51:41;3.63;;;3.28;;
76123;SDS011;65173;48.066;20.976;2023-05-07T10:58:40;3.03;;;2.67;;
76123;SDS011;65173;48.066;20.976;2023-05-07T11:01:58;3.88;;;3.10;;
76123;SDS011;65173;48.066;20.976;2023-05-07T11:05:21;3.20;;;2.90;;
76123;SDS011;65173;48.066;20.976;2023-05-07T11:08:57;2.88;;;2.58;;
76123;SDS011;65173;48.066;20.976;2023-05-07T11:12:10;2.83;;;2.50;;
76123;SDS011;65173;48.066;20.976;2023-05-07T11:19:11;3.38;;;3.05;;
76123;SDS011;65173;48.066;20.976;2023-05-07T11:25:50;4.32;;;2.83;;
76123;SDS011;65173;48.066;20.976;2023-05-07T11:28:57;2.83;;;2.63;;
76123;SDS011;65173;48.066;20.976;2023-05-07T11:32:01;2.93;;;2.40;;
76123;SDS011;65173;48.066;20.976;2023-05-07T11:35:10;3.40;;;2.45;;
76123;SDS011;65173;48.066;20.976;2023-05-07T11:38:15;2.85;;;2.50;;
76123;SDS011;65173;48.066;20.976;2023-05-07T11:41:18;2.80;;;2.60;;
76123;SDS011;65173;48.066;20.976;2023-05-07T11:44:24;2.73;;;2.37;;
76123;SDS011;65173;48.066;20.976;2023-05-07T11:47:29;3.40;;;2.58;;
76123;SDS011;65173;48.066;20.976;2023-05-07T11:50:33;3.05;;;2.75;;
76123;SDS011;65173;48.066;20.976;2023-05-07T11:53:36;2.75;;;2.53;;
76123;SDS011;65173;48.066;20.976;2023-05-07T11:56:40;2.90;;;2.70;;
76123;SDS011;65173;48.066;20.976;2023-05-07T11:59:43;2.47;;;2.15;;
76123;SDS011;65173;48.066;20.976;2023-05-07T12:02:52;3.55;;;3.00;;
76123;SDS011;65173;48.066;20.976;2023-05-07T12:05:55;3.37;;;2.60;;
76123;SDS011;65173;48.066;20.976;2023-05-07T12:08:57;2.58;;;2.33;;
76123;SDS011;65173;48.066;20.976;2023-05-07T12:12:03;4.25;;;2.75;;
76123;SDS011;65173;48.066;20.976;2023-05-07T12:15:07;2.75;;;2.45;;
76123;SDS011;65173;48.066;20.976;2023-05-07T12:18:11;2.33;;;2.05;;
76123;SDS011;65173;48.066;20.976;2023-05-07T12:21:14;3.13;;;2.80;;
76123;SDS011;65173;48.066;20.976;2023-05-07T12:24:19;3.08;;;2.50;;
76123;SDS011;65173;48.066;20.976;2023-05-07T12:27:24;2.50;;;2.30;;
76123;SDS011;65173;48.066;20.976;2023-05-07T12:30:27;3.15;;;2.92;;
76123;SDS011;65173;48.066;20.976;2023-05-07T12:33:30;2.95;;;2.65;;
76123;SDS011;65173;48.066;20.976;2023-05-07T12:36:38;3.67;;;3.13;;
76123;SDS011;65173;48.066;20.976;2023-05-07T12:39:47;3.67;;;3.05;;
76123;SDS011;65173;48.066;20.976;2023-05-07T12:42:52;3.35;;;3.08;;
76123;SDS011;65173;48.066;20.976;2023-05-07T12:46:06;3.70;;;3.00;;
76123;SDS011;65173;48.066;20.976;2023-05-07T12:49:10;3.05;;;2.80;;
76123;SDS011;65173;48.066;20.976;2023-05-07T12:52:13;3.20;;;2.85;;
76123;SDS011;65173;48.066;20.976;2023-05-07T12:55:15;2.45;;;2.25;;
76123;SDS011;65173;48.066;20.976;2023-05-07T12:58:20;2.87;;;2.67;;
76123;SDS011;65173;48.066;20.976;2023-05-07T13:01:28;2.20;;;2.10;;
76123;SDS011;65173;48.066;20.976;2023-05-07T13:04:32;2.20;;;2.05;;
76123;SDS011;65173;48.066;20.976;2023-05-07T13:07:35;2.42;;;2.22;;
76123;SDS011;65173;48.066;20.976;2023-05-07T13:10:39;3.08;;;2.65;;
76123;SDS011;65173;48.066;20.976;2023-05-07T13:13:41;3.08;;;2.78;;
76123;SDS011;65173;48.066;20.976;2023-05-07T13:16:44;2.97;;;2.70;;
76123;SDS011;65173;48.066;20.976;2023-05-07T13:19:48;5.23;;;1.97;;
76123;SDS011;65173;48.066;20.976;2023-05-07T13:22:50;4.30;;;2.65;;
76123;SDS011;65173;48.066;20.976;2023-05-07T13:25:53;3.55;;;2.40;;
76123;SDS011;65173;48.066;20.976;2023-05-07T13:28:56;5.23;;;2.63;;
76123;SDS011;65173;48.066;20.976;2023-05-07T13:31:59;3.53;;;2.35;;
76123;SDS011;65173;48.066;20.976;2023-05-07T13:35:02;4.13;;;2.45;;
76123;SDS011;65173;48.066;20.976;2023-05-07T13:38:05;3.78;;;2.30;;
76123;SDS011;65173;48.066;20.976;2023-05-07T13:41:08;3.35;;;2.22;;
76123;SDS011;65173;48.066;20.976;2023-05-07T13:44:11;3.63;;;2.35;;
76123;SDS011;65173;48.066;20.976;2023-05-07T13:47:14;3.42;;;2.53;;
76123;SDS011;65173;48.066;20.976;2023-05-07T13:50:17;3.67;;;2.27;;
76123;SDS011;65173;48.066;20.976;2023-05-07T13:53:19;3.08;;;2.03;;
76123;SDS011;65173;48.066;20.976;2023-05-07T13:56:22;5.40;;;2.78;;
76123;SDS011;65173;48.066;20.976;2023-05-07T13:59:25;3.90;;;2.43;;
76123;SDS011;65173;48.066;20.976;2023-05-07T14:02:28;4.25;;;2.65;;
76123;SDS011;65173;48.066;20.976;2023-05-07T14:05:31;3.60;;;2.60;;
76123;SDS011;65173;48.066;20.976;2023-05-07T14:08:33;3.50;;;2.30;;
76123;SDS011;65173;48.066;20.976;2023-05-07T14:11:36;4.38;;;2.20;;
76123;SDS011;65173;48.066;20.976;2023-05-07T14:14:39;3.45;;;2.53;;
76123;SDS011;65173;48.066;20.976;2023-05-07T14:17:43;2.75;;;2.33;;
76123;SDS011;65173;48.066;20.976;2023-05-07T14:20:46;2.37;;;2.03;;
76123;SDS011;65173;48.066;20.976;2023-05-07T14:23:50;3.03;;;2.33;;
76123;SDS011;65173;48.066;20.976;2023-05-07T14:26:53;1.95;;;1.65;;
76123;SDS011;65173;48.066;20.976;2023-05-07T14:29:56;4.23;;;2.57;;
76123;SDS011;65173;48.066;20.976;2023-05-07T14:32:58;4.18;;;2.50;;
76123;SDS011;65173;48.066;20.976;2023-05-07T14:36:01;3.53;;;2.08;;
76123;SDS011;65173;48.066;20.976;2023-05-07T14:39:05;3.60;;;1.90;;
76123;SDS011;65173;48.066;20.976;2023-05-07T14:42:08;1.45;;;1.30;;
76123;SDS011;65173;48.066;20.976;2023-05-07T14:45:11;2.13;;;1.92;;
76123;SDS011;65173;48.066;20.976;2023-05-07T14:48:14;1.52;;;1.05;;
76123;SDS011;65173;48.066;20.976;2023-05-07T14:51:17;3.40;;;1.40;;
76123;SDS011;65173;48.066;20.976;2023-05-07T14:54:20;2.38;;;1.20;;
76123;SDS011;65173;48.066;20.976;2023-05-07T14:57:23;1.42;;;0.82;;
76123;SDS011;65173;48.066;20.976;2023-05-07T15:00:25;1.67;;;1.20;;
76123;SDS011;65173;48.066;20.976;2023-05-07T15:03:28;1.02;;;0.50;;
76123;SDS011;65173;48.066;20.976;2023-05-07T15:06:32;1.20;;;1.10;;
76123;SDS011;65173;48.066;20.976;2023-05-07T15:09:35;1.20;;;0.68;;
76123;SDS011;65173;48.066;20.976;2023-05-07T15:12:38;0.98;;;0.90;;
76123;SDS011;65173;48.066;20.976;2023-05-07T15:15:42;0.90;;;0.80;;
76123;SDS011;65173;48.066;20.976;2023-05-07T15:18:46;0.90;;;0.80;;
76123;SDS011;65173;48.066;20.976;2023-05-07T15:21:49;0.73;;;0.63;;
76123;SDS011;65173;48.066;20.976;2023-05-07T15:24:52;1.25;;;0.75;;
76123;SDS011;65173;48.066;20.976;2023-05-07T15:27:54;1.90;;;0.90;;
76123;SDS011;65173;48.066;20.976;2023-05-07T15:30:58;0.73;;;0.73;;
76123;SDS011;65173;48.066;20.976;2023-05-07T15:34:01;1.75;;;1.02;;
76123;SDS011;65173;48.066;20.976;2023-05-07T15:37:04;1.98;;;1.08;;
76123;SDS011;65173;48.066;20.976;2023-05-07T15:40:07;0.88;;;0.60;;
76123;SDS011;65173;48.066;20.976;2023-05-07T15:43:10;0.90;;;0.55;;
76123;SDS011;65173;48.066;20.976;2023-05-07T15:46:17;1.05;;;0.80;;
76123;SDS011;65173;48.066;20.976;2023-05-07T15:49:24;0.73;;;0.73;;
76123;SDS011;65173;48.066;20.976;2023-05-07T15:52:26;0.60;;;0.53;;
76123;SDS011;65173;48.066;20.976;2023-05-07T15:55:31;1.70;;;1.00;;
76123;SDS011;65173;48.066;20.976;2023-05-07T15:58:33;0.95;;;0.85;;
76123;SDS011;65173;48.066;20.976;2023-05-07T16:01:37;1.27;;;1.10;;
76123;SDS011;65173;48.066;20.976;2023-05-07T16:04:42;1.42;;;0.88;;
76123;SDS011;65173;48.066;20.976;2023-05-07T16:07:45;1.98;;;1.00;;
76123;SDS011;65173;48.066;20.976;2023-05-07T16:10:48;1.48;;;1.00;;
76123;SDS011;65173;48.066;20.976;2023-05-07T16:13:51;1.88;;;0.95;;
76123;SDS011;65173;48.066;20.976;2023-05-07T16:16:54;1.55;;;0.80;;
76123;SDS011;65173;48.066;20.976;2023-05-07T16:19:58;0.80;;;0.80;;
76123;SDS011;65173;48.066;20.976;2023-05-07T16:23:00;0.90;;;0.60;;
76123;SDS011;65173;48.066;20.976;2023-05-07T16:26:03;0.98;;;0.57;;
76123;SDS011;65173;48.066;20.976;2023-05-07T16:29:06;1.25;;;1.15;;
76123;SDS011;65173;48.066;20.976;2023-05-07T16:32:09;0.40;;;0.40;;
76123;SDS011;65173;48.066;20.976;2023-05-07T16:35:11;0.85;;;0.80;;
76123;SDS011;65173;48.066;20.976;2023-05-07T16:38:15;0.20;;;0.10;;
76123;SDS011;65173;48.066;20.976;2023-05-07T16:41:18;1.00;;;0.68;;
76123;SDS011;65173;48.066;20.976;2023-05-07T16:44:22;0.55;;;0.28;;
76123;SDS011;65173;48.066;20.976;2023-05-07T16:47:24;0.70;;;0.68;;
76123;SDS011;65173;48.066;20.976;2023-05-07T16:50:27;1.95;;;0.68;;
76123;SDS011;65173;48.066;20.976;2023-05-07T16:53:30;0.70;;;0.60;;
76123;SDS011;65173;48.066;20.976;2023-05-07T16:56:33;0.43;;;0.43;;
76123;SDS011;65173;48.066;20.976;2023-05-07T16:59:36;0.88;;;0.70;;
76123;SDS011;65173;48.066;20.976;2023-05-07T17:02:38;1.93;;;1.03;;
76123;SDS011;65173;48.066;20.976;2023-05-07T17:05:42;3.05;;;1.33;;
76123;SDS011;65173;48.066;20.976;2023-05-07T17:08:45;4.15;;;1.15;;
76123;SDS011;65173;48.066;20.976;2023-05-07T17:11:47;1.52;;;0.68;;
76123;SDS011;65173;48.066;20.976;2023-05-07T17:14:50;2.25;;;0.85;;
76123;SDS011;65173;48.066;20.976;2023-05-07T17:17:52;1.13;;;1.02;;
76123;SDS011;65173;48.066;20.976;2023-05-07T17:20:55;1.23;;;0.63;;
76123;SDS011;65173;48.066;20.976;2023-05-07T17:23:58;2.40;;;0.97;;
76123;SDS011;65173;48.066;20.976;2023-05-07T17:27:01;1.05;;;0.65;;
76123;SDS011;65173;48.066;20.976;2023-05-07T17:30:03;0.43;;;0.43;;
76123;SDS011;65173;48.066;20.976;2023-05-07T17:33:07;0.90;;;0.70;;
76123;SDS011;65173;48.066;20.976;2023-05-07T17:36:21;0.75;;;0.55;;
76123;SDS011;65173;48.066;20.976;2023-05-07T17:39:24;1.75;;;1.20;;
76123;SDS011;65173;48.066;20.976;2023-05-07T17:42:28;0.70;;;0.68;;
76123;SDS011;65173;48.066;20.976;2023-05-07T17:45:31;1.95;;;1.15;;
76123;SDS011;65173;48.066;20.976;2023-05-07T17:48:33;1.13;;;0.77;;
76123;SDS011;65173;48.066;20.976;2023-05-07T17:51:36;1.17;;;0.90;;
76123;SDS011;65173;48.066;20.976;2023-05-07T17:54:54;1.17;;;0.60;;
76123;SDS011;65173;48.066;20.976;2023-05-07T17:57:57;1.00;;;0.88;;
76123;SDS011;65173;48.066;20.976;2023-05-07T18:01:00;0.80;;;0.32;;
76123;SDS011;65173;48.066;20.976;2023-05-07T18:04:03;1.37;;;1.30;;
76123;SDS011;65173;48.066;20.976;2023-05-07T18:07:06;2.33;;;0.93;;
76123;SDS011;65173;48.066;20.976;2023-05-07T18:10:09;1.55;;;1.10;;
76123;SDS011;65173;48.066;20.976;2023-05-07T18:13:12;0.52;;;0.47;;
76123;SDS011;65173;48.066;20.976;2023-05-07T18:16:15;0.38;;;0.38;;
76123;SDS011;65173;48.066;20.976;2023-05-07T18:19:19;0.73;;;0.73;;
76123;SDS011;65173;48.066;20.976;2023-05-07T18:22:22;1.30;;;1.10;;
76123;SDS011;65173;48.066;20.976;2023-05-07T18:25:25;1.53;;;1.37;;